Time;durP1;ratioP1;P1;durP2;ratioP2;P2;SDS_P1;SDS_P2;PMS_P1;PMS_P2;Temp;Humidity;BMP_temperature;BMP_pressure;BME280_temperature;BME280_humidity;BME280_pressure;Samples;Min_cycle;Max_cycle;Signal;HPM_P1;HPM_P2
2022/05/02 00:01:20;;;;;;;57.28;28.02;;;;;;;;;;6234682;22;20016;-45
2022/05/02 00:03:46;;;;;;;66.05;28.35;;;;;;;;;;6237111;22;20012;-47
2022/05/02 00:06:11;;;;;;;62.92;28.52;;;;;;;;;;6235600;22;20082;-47
2022/05/02 00:08:37;;;;;;;59.53;27.02;;;;;;;;;;6236768;22;20020;-46
2022/05/02 00:11:02;;;;;;;63.03;28.88;;;;;;;;;;6235076;22;20060;-45
2022/05/02 00:13:27;;;;;;;62.25;27.67;;;;;;;;;;6236333;22;20016;-44
2022/05/02 00:15:52;;;;;;;73.70;32.63;;;;;;;;;;6235210;22;20008;-45
2022/05/02 00:18:18;;;;;;;64.75;28.45;;;;;;;;;;6237114;22;20047;-45
2022/05/02 00:20:43;;;;;;;61.45;30.67;;;;;;;;;;6235145;22;20000;-45
2022/05/02 00:23:09;;;;;;;63.97;31.70;;;;;;;;;;6236837;22;20012;-45
2022/05/02 00:25:35;;;;;;;64.20;27.63;;;;;;;;;;6234718;22;20016;-44
2022/05/02 00:28:00;;;;;;;65.63;29.25;;;;;;;;;;6236974;22;20415;-46
2022/05/02 00:30:26;;;;;;;70.00;29.50;;;;;;;;;;6235611;22;20012;-44
2022/05/02 00:32:51;;;;;;;53.00;27.02;;;;;;;;;;6236749;22;20012;-45
2022/05/02 00:35:17;;;;;;;56.15;27.25;;;;;;;;;;6235374;22;20046;-47
2022/05/02 00:37:42;;;;;;;56.90;26.95;;;;;;;;;;6236152;22;20000;-45
2022/05/02 00:40:09;;;;;;;56.05;27.52;;;;;;;;;;6237099;22;20013;-47
2022/05/02 00:42:34;;;;;;;52.40;26.45;;;;;;;;;;6209116;23;20004;-44
2022/05/02 00:45:00;;;;;;;56.83;26.30;;;;;;;;;;6236350;22;20019;-45
2022/05/02 00:47:25;;;;;;;53.75;26.30;;;;;;;;;;6234667;22;20020;-45
2022/05/02 00:49:51;;;;;;;66.30;28.38;;;;;;;;;;6236908;22;20063;-44
2022/05/02 00:52:17;;;;;;;52.90;27.38;;;;;;;;;;6233611;22;20016;-46
2022/05/02 00:54:43;;;;;;;56.33;26.58;;;;;;;;;;6210250;23;20694;-45
2022/05/02 00:57:10;;;;;;;56.55;28.90;;;;;;;;;;6236707;22;20008;-46
2022/05/02 00:59:36;;;;;;;54.42;27.10;;;;;;;;;;6237460;22;20073;-45
2022/05/02 01:02:02;;;;;;;57.50;27.60;;;;;;;;;;6236402;22;20043;-46
2022/05/02 01:04:27;;;;;;;58.83;27.55;;;;;;;;;;6235931;22;20020;-47
2022/05/02 01:09:42;;;;;;;59.00;28.02;;;;;;;;;;6236843;22;20107;-44
2022/05/02 01:12:08;;;;;;;55.45;26.77;;;;;;;;;;6235669;22;20008;-48
2022/05/02 01:14:34;;;;;;;56.53;27.55;;;;;;;;;;6235807;22;20016;-48
2022/05/02 01:17:00;;;;;;;56.58;27.55;;;;;;;;;;6235206;22;20524;-46
2022/05/02 01:19:25;;;;;;;48.38;23.65;;;;;;;;;;6236757;22;20021;-45
2022/05/02 01:21:50;;;;;;;51.25;25.48;;;;;;;;;;6236227;22;20381;-44
2022/05/02 01:24:15;;;;;;;51.78;26.13;;;;;;;;;;6235677;22;20074;-46
2022/05/02 01:26:41;;;;;;;52.35;23.35;;;;;;;;;;6235337;22;20428;-45
2022/05/02 01:29:06;;;;;;;48.80;24.95;;;;;;;;;;6236462;22;20027;-46
2022/05/02 01:31:32;;;;;;;53.05;26.33;;;;;;;;;;6235239;22;20437;-52
2022/05/02 01:33:57;;;;;;;48.78;25.13;;;;;;;;;;6236938;22;20373;-45
2022/05/02 01:36:23;;;;;;;58.55;26.75;;;;;;;;;;6234754;22;20095;-46
2022/05/02 01:38:48;;;;;;;51.58;26.08;;;;;;;;;;6235312;22;19997;-45
2022/05/02 01:41:14;;;;;;;49.38;25.08;;;;;;;;;;6235092;22;20012;-47
2022/05/02 01:43:39;;;;;;;53.72;26.60;;;;;;;;;;6236177;22;20014;-46
2022/05/02 01:46:06;;;;;;;49.00;25.58;;;;;;;;;;6235756;22;20007;-47
2022/05/02 01:48:31;;;;;;;49.22;26.42;;;;;;;;;;6235452;22;20478;-45
2022/05/02 01:51:00;;;;;;;51.72;27.30;;;;;;;;;;6234899;22;20036;-47
2022/05/02 01:53:25;;;;;;;49.95;25.60;;;;;;;;;;6234999;22;20016;-44
2022/05/02 01:55:50;;;;;;;49.50;27.08;;;;;;;;;;6235554;22;20338;-44
2022/05/02 01:58:16;;;;;;;52.97;26.30;;;;;;;;;;6232698;22;20016;-46
2022/05/02 02:00:41;;;;;;;53.75;26.90;;;;;;;;;;6234737;22;20027;-46
2022/05/02 02:03:06;;;;;;;51.00;26.85;;;;;;;;;;6233022;22;20016;-46
2022/05/02 02:05:50;;;;;;;50.58;26.80;;;;;;;;;;6235200;22;20012;-47
2022/05/02 02:08:20;;;;;;;54.33;26.58;;;;;;;;;;6233187;22;20091;-46
2022/05/02 02:10:45;;;;;;;;;;;;;;;;;;6236877;22;20054;-44
2022/05/02 02:13:11;;;;;;;60.75;28.08;;;;;;;;;;6232753;22;19935;-46
2022/05/02 02:15:36;;;;;;;47.85;25.05;;;;;;;;;;6235804;22;20023;-45
2022/05/02 02:18:01;;;;;;;52.70;26.75;;;;;;;;;;6234005;22;20018;-46
2022/05/02 02:20:27;;;;;;;52.35;26.38;;;;;;;;;;6236510;22;20073;-47
2022/05/02 02:22:52;;;;;;;55.47;27.63;;;;;;;;;;6233684;22;20056;-44
2022/05/02 02:25:17;;;;;;;50.33;24.92;;;;;;;;;;6233377;22;20031;-45
2022/05/02 02:27:42;;;;;;;50.70;25.17;;;;;;;;;;6234071;22;20008;-44
2022/05/02 02:30:08;;;;;;;54.78;26.58;;;;;;;;;;6236239;22;20016;-45
2022/05/02 02:32:33;;;;;;;49.38;25.80;;;;;;;;;;6233081;22;20019;-46
2022/05/02 02:34:59;;;;;;;48.65;25.80;;;;;;;;;;6227465;22;20376;-45
2022/05/02 02:37:24;;;;;;;55.35;26.70;;;;;;;;;;6234524;22;20012;-44
2022/05/02 02:39:49;;;;;;;58.00;25.67;;;;;;;;;;6235198;22;20020;-45
2022/05/02 02:42:15;;;;;;;51.72;26.15;;;;;;;;;;6234171;22;20019;-46
2022/05/02 02:44:40;;;;;;;60.05;26.73;;;;;;;;;;6232465;22;20016;-44
2022/05/02 02:47:05;;;;;;;50.30;25.48;;;;;;;;;;6236599;22;20016;-46
2022/05/02 02:49:30;;;;;;;46.92;26.05;;;;;;;;;;6230472;22;20430;-45
2022/05/02 02:51:56;;;;;;;55.30;25.92;;;;;;;;;;6233598;22;20020;-45
2022/05/02 02:54:21;;;;;;;49.15;25.65;;;;;;;;;;6234834;22;20076;-44
2022/05/02 02:56:47;;;;;;;49.38;26.25;;;;;;;;;;6234008;22;20012;-45
2022/05/02 02:59:12;;;;;;;57.45;28.02;;;;;;;;;;6233760;22;20084;-45
2022/05/02 03:01:38;;;;;;;55.72;27.05;;;;;;;;;;6231007;22;20012;-44
2022/05/02 03:06:01;;;;;;;58.95;28.27;;;;;;;;;;6232493;22;20019;-44
2022/05/02 03:06:49;;;;;;;54.63;27.45;;;;;;;;;;6230800;22;20341;-45
2022/05/02 03:09:14;;;;;;;59.58;29.23;;;;;;;;;;6232191;22;20291;-44
2022/05/02 03:11:40;;;;;;;56.33;28.70;;;;;;;;;;6229152;22;20155;-45
2022/05/02 03:14:06;;;;;;;63.08;30.52;;;;;;;;;;6232779;22;20039;-45
2022/05/02 03:16:31;;;;;;;62.83;29.83;;;;;;;;;;6229603;22;20008;-44
2022/05/02 03:18:56;;;;;;;62.17;28.30;;;;;;;;;;6232781;22;20016;-44
2022/05/02 03:21:22;;;;;;;55.17;27.73;;;;;;;;;;6230930;22;20040;-45
2022/05/02 03:23:47;;;;;;;52.35;27.40;;;;;;;;;;6234750;22;20012;-46
2022/05/02 03:26:12;;;;;;;53.00;27.70;;;;;;;;;;6235000;22;20067;-44
2022/05/02 03:28:37;;;;;;;57.28;27.60;;;;;;;;;;6234071;22;20016;-45
2022/05/02 03:31:03;;;;;;;60.90;29.38;;;;;;;;;;6234651;22;20016;-45
2022/05/02 03:33:29;;;;;;;57.15;28.08;;;;;;;;;;6233673;22;20054;-44
2022/05/02 03:35:54;;;;;;;60.53;30.50;;;;;;;;;;6235018;22;20445;-45
2022/05/02 03:38:20;;;;;;;61.15;30.40;;;;;;;;;;6232933;22;20016;-46
2022/05/02 03:40:45;;;;;;;59.22;29.05;;;;;;;;;;6234780;22;20008;-45
2022/05/02 03:43:10;;;;;;;64.82;29.33;;;;;;;;;;6232244;22;20047;-44
2022/05/02 03:45:36;;;;;;;67.82;30.83;;;;;;;;;;6235131;22;20468;-44
2022/05/02 03:48:01;;;;;;;59.63;30.15;;;;;;;;;;6232547;22;20605;-45
2022/05/02 03:50:26;;;;;;;66.22;29.73;;;;;;;;;;6232871;22;20027;-44
2022/05/02 03:52:52;;;;;;;66.28;29.73;;;;;;;;;;6235071;22;20069;-48
2022/05/02 03:55:17;;;;;;;62.20;29.73;;;;;;;;;;6234648;22;20020;-45
2022/05/02 03:57:42;;;;;;;64.25;29.90;;;;;;;;;;6235190;22;20008;-44
2022/05/02 04:00:08;;;;;;;64.32;30.17;;;;;;;;;;6234550;22;20008;-45
2022/05/02 04:02:34;;;;;;;60.90;31.45;;;;;;;;;;6232601;22;20016;-45
2022/05/02 04:04:59;;;;;;;67.13;31.63;;;;;;;;;;6234933;22;20016;-46
2022/05/02 04:07:24;;;;;;;64.25;30.55;;;;;;;;;;6234919;22;20019;-45
2022/05/02 04:09:50;;;;;;;63.97;30.73;;;;;;;;;;6234811;22;20020;-45
2022/05/02 04:12:15;;;;;;;65.05;29.25;;;;;;;;;;6233968;22;20015;-45
2022/05/02 04:14:40;;;;;;;62.30;30.10;;;;;;;;;;6235796;22;20078;-46
2022/05/02 04:17:06;;;;;;;74.07;31.00;;;;;;;;;;6234669;22;20012;-46
2022/05/02 04:19:31;;;;;;;81.50;31.15;;;;;;;;;;6235434;22;20012;-46
2022/05/02 04:21:56;;;;;;;61.75;30.42;;;;;;;;;;6233513;22;20016;-45
2022/05/02 04:24:21;;;;;;;81.50;33.38;;;;;;;;;;6234823;22;20016;-46
2022/05/02 04:26:47;;;;;;;70.38;31.08;;;;;;;;;;6234312;22;20031;-47
2022/05/02 04:29:12;;;;;;;67.78;31.95;;;;;;;;;;6210466;22;20020;-45
2022/05/02 04:31:37;;;;;;;64.53;31.00;;;;;;;;;;6235637;22;20012;-45
2022/05/02 04:34:02;;;;;;;58.80;29.38;;;;;;;;;;6237484;22;20004;-45
2022/05/02 04:36:28;;;;;;;70.18;31.10;;;;;;;;;;6234540;22;20077;-45
2022/05/02 04:38:53;;;;;;;66.07;29.80;;;;;;;;;;6238247;22;20000;-44
2022/05/02 04:41:18;;;;;;;71.05;30.90;;;;;;;;;;6207674;22;20111;-47
2022/05/02 04:43:44;;;;;;;73.25;32.72;;;;;;;;;;6237187;22;20015;-49
2022/05/02 04:46:09;;;;;;;60.40;28.30;;;;;;;;;;6234764;22;20039;-47
2022/05/02 04:48:35;;;;;;;68.80;30.75;;;;;;;;;;6235517;22;20039;-46
2022/05/02 04:51:00;;;;;;;63.67;27.65;;;;;;;;;;6233876;22;20024;-45
2022/05/02 04:53:25;;;;;;;68.32;31.35;;;;;;;;;;6236631;22;20009;-47
2022/05/02 04:55:50;;;;;;;66.70;31.02;;;;;;;;;;6234647;22;20012;-45
2022/05/02 04:58:16;;;;;;;72.03;29.77;;;;;;;;;;6237247;22;20032;-45
2022/05/02 05:00:42;;;;;;;70.63;31.20;;;;;;;;;;6235511;22;20023;-45
2022/05/02 05:03:07;;;;;;;60.20;28.75;;;;;;;;;;6237779;22;20023;-45
2022/05/02 05:05:32;;;;;;;65.07;30.35;;;;;;;;;;6234266;22;20008;-46
2022/05/02 05:07:58;;;;;;;62.30;29.83;;;;;;;;;;6237945;22;20035;-46
2022/05/02 05:10:23;;;;;;;62.80;31.13;;;;;;;;;;6234673;22;20027;-46
2022/05/02 05:12:48;;;;;;;72.65;33.00;;;;;;;;;;6237127;22;20020;-45
2022/05/02 05:18:19;;;;;;;72.68;33.20;;;;;;;;;;6235164;22;21009;-47
2022/05/02 05:20:53;;;;;;;86.03;37.13;;;;;;;;;;6237504;22;20039;-45
2022/05/02 05:23:37;;;;;;;85.63;38.70;;;;;;;;;;6234502;22;20026;-47
2022/05/02 05:26:13;;;;;;;83.40;35.40;;;;;;;;;;6237133;22;20070;-44
2022/05/02 05:28:57;;;;;;;85.82;36.38;;;;;;;;;;6236657;22;20074;-47
2022/05/02 05:31:27;;;;;;;85.82;37.03;;;;;;;;;;6234319;22;20012;-46
2022/05/02 05:34:06;;;;;;;77.25;34.92;;;;;;;;;;6237027;22;20027;-45
2022/05/02 05:36:31;;;;;;;80.20;33.72;;;;;;;;;;6233961;22;20028;-46
2022/05/02 05:39:07;;;;;;;81.32;36.42;;;;;;;;;;6236109;22;20008;-44
2022/05/02 05:41:41;;;;;;;79.32;33.55;;;;;;;;;;6235344;22;20012;-48
2022/05/02 05:44:33;;;;;;;84.32;35.70;;;;;;;;;;6236216;22;20012;-46
2022/05/02 05:47:23;;;;;;;91.10;37.70;;;;;;;;;;6235909;22;20008;-46
2022/05/02 05:50:07;;;;;;;89.05;38.17;;;;;;;;;;6233867;22;20016;-45
2022/05/02 05:52:51;;;;;;;87.70;37.13;;;;;;;;;;6233010;22;20205;-45
2022/05/02 05:55:21;;;;;;;95.20;37.38;;;;;;;;;;6235294;22;20008;-46
2022/05/02 05:57:57;;;;;;;82.35;36.92;;;;;;;;;;6236719;22;20004;-46
2022/05/02 06:00:24;;;;;;;78.60;36.47;;;;;;;;;;6234684;22;20020;-49
2022/05/02 06:02:53;;;;;;;86.35;37.63;;;;;;;;;;6237654;22;20008;-49
2022/05/02 06:05:18;;;;;;;94.88;37.97;;;;;;;;;;6234308;22;20051;-47
2022/05/02 06:07:44;;;;;;;79.47;37.28;;;;;;;;;;6236808;22;20012;-46
2022/05/02 06:10:10;;;;;;;85.95;38.13;;;;;;;;;;6233489;22;20092;-48
2022/05/02 06:12:36;;;;;;;90.20;37.50;;;;;;;;;;6236142;22;20018;-47
2022/05/02 06:20:33;;;;;;;90.90;38.20;;;;;;;;;;6236092;22;20082;-46
2022/05/02 06:22:59;;;;;;;88.90;38.17;;;;;;;;;;6234960;22;20075;-47
2022/05/02 06:25:28;;;;;;;86.35;34.83;;;;;;;;;;6235438;22;20987;-46
2022/05/02 06:27:53;;;;;;;80.50;35.95;;;;;;;;;;6234544;22;20126;-45
2022/05/02 06:30:18;;;;;;;80.20;35.70;;;;;;;;;;6236024;22;20027;-45
2022/05/02 06:32:44;;;;;;;77.38;33.50;;;;;;;;;;6233830;22;20012;-48
2022/05/02 06:35:10;;;;;;;82.88;38.45;;;;;;;;;;6235389;22;20019;-50
2022/05/02 06:37:41;;;;;;;75.60;33.30;;;;;;;;;;6234223;22;20087;-45
2022/05/02 06:40:22;;;;;;;81.10;32.45;;;;;;;;;;6236786;22;20506;-45
2022/05/02 06:43:01;;;;;;;77.28;32.03;;;;;;;;;;6232485;22;20031;-50
2022/05/02 06:45:26;;;;;;;85.83;32.67;;;;;;;;;;6234812;22;20012;-46
2022/05/02 06:48:08;;;;;;;73.95;32.50;;;;;;;;;;6233885;22;20321;-46
2022/05/02 06:50:36;;;;;;;74.22;31.27;;;;;;;;;;6234626;22;20078;-44
2022/05/02 06:53:01;;;;;;;71.68;33.15;;;;;;;;;;6233650;22;20031;-46
2022/05/02 06:55:45;;;;;;;80.72;30.80;;;;;;;;;;6207868;22;20016;-46
2022/05/02 06:58:24;;;;;;;77.47;35.50;;;;;;;;;;6235409;22;20379;-46
2022/05/02 07:00:55;;;;;;;69.07;29.85;;;;;;;;;;6207718;23;20534;-46
2022/05/02 07:03:32;;;;;;;86.00;33.20;;;;;;;;;;6234619;22;20012;-46
2022/05/02 07:06:09;;;;;;;73.40;30.38;;;;;;;;;;6235576;22;20078;-44
2022/05/02 07:08:42;;;;;;;76.10;30.15;;;;;;;;;;6234126;22;20508;-46
2022/05/02 07:11:08;;;;;;;65.63;29.67;;;;;;;;;;6235403;22;20039;-45
2022/05/02 07:13:40;;;;;;;70.53;30.83;;;;;;;;;;6233600;22;20014;-48
2022/05/02 07:16:05;;;;;;;64.70;33.55;;;;;;;;;;6209199;23;20031;-45
2022/05/02 07:18:38;;;;;;;74.27;32.50;;;;;;;;;;6234252;22;20012;-45
2022/05/02 07:21:15;;;;;;;65.05;29.00;;;;;;;;;;6235820;22;20230;-45
2022/05/02 07:24:03;;;;;;;74.88;30.15;;;;;;;;;;6234596;22;20064;-48
2022/05/02 07:26:30;;;;;;;62.47;27.98;;;;;;;;;;6162487;22;20020;-44
2022/05/02 07:28:59;;;;;;;57.70;27.17;;;;;;;;;;6236338;22;20042;-46
2022/05/02 07:31:25;;;;;;;60.80;26.17;;;;;;;;;;6233606;22;20008;-46
2022/05/02 07:33:51;;;;;;;60.78;28.35;;;;;;;;;;6235267;22;20020;-46
2022/05/02 07:36:17;;;;;;;63.67;27.60;;;;;;;;;;6232841;22;20008;-46
2022/05/02 07:38:47;;;;;;;59.58;27.05;;;;;;;;;;6236135;22;20058;-45
2022/05/02 07:41:22;;;;;;;55.78;24.85;;;;;;;;;;6232372;22;20008;-47
2022/05/02 07:43:48;;;;;;;48.38;22.90;;;;;;;;;;6236185;22;20011;-44
2022/05/02 07:46:14;;;;;;;59.90;25.38;;;;;;;;;;6232332;22;20012;-44
2022/05/02 07:48:40;;;;;;;58.47;24.75;;;;;;;;;;6235784;22;20390;-44
2022/05/02 07:51:09;;;;;;;57.25;24.92;;;;;;;;;;6232602;22;20024;-44
2022/05/02 07:53:35;;;;;;;55.42;24.67;;;;;;;;;;6234067;22;20020;-48
2022/05/02 07:56:01;;;;;;;43.53;22.13;;;;;;;;;;6233281;22;20015;-46
2022/05/02 07:58:26;;;;;;;48.92;22.42;;;;;;;;;;6235155;22;20012;-46
2022/05/02 08:00:51;;;;;;;55.63;26.13;;;;;;;;;;6234116;22;20012;-46
2022/05/02 08:03:20;;;;;;;46.85;23.30;;;;;;;;;;6237018;22;20008;-46
2022/05/02 08:05:48;;;;;;;60.38;26.10;;;;;;;;;;6237032;22;20027;-46
2022/05/02 08:08:17;;;;;;;54.97;24.95;;;;;;;;;;6236398;22;20019;-46
2022/05/02 08:10:42;;;;;;;;;;;;;;;;;;6237946;22;20023;-44
2022/05/02 08:13:08;;;;;;;57.50;26.58;;;;;;;;;;6236489;22;20098;-44
2022/05/02 08:15:40;;;;;;;56.60;25.60;;;;;;;;;;6236055;22;20014;-47
2022/05/02 08:18:21;;;;;;;55.10;25.05;;;;;;;;;;6235298;22;20257;-45
2022/05/02 08:21:01;;;;;;;54.92;25.42;;;;;;;;;;6227775;22;20018;-44
2022/05/02 08:29:50;;;;;;;50.78;23.35;;;;;;;;;;6237669;22;20442;-47
2022/05/02 08:32:27;;;;;;;57.10;25.85;;;;;;;;;;6236225;22;20008;-44
2022/05/02 08:35:02;;;;;;;54.80;26.08;;;;;;;;;;6236072;22;20307;-49
2022/05/02 08:37:30;;;;;;;57.45;24.85;;;;;;;;;;6236692;22;20015;-48
2022/05/02 08:40:04;;;;;;;51.95;24.80;;;;;;;;;;6236669;22;20426;-45
2022/05/02 08:42:41;;;;;;;51.92;24.80;;;;;;;;;;6210500;22;20038;-46
2022/05/02 08:45:13;;;;;;;48.65;24.30;;;;;;;;;;6236528;22;20288;-45
2022/05/02 08:48:13;;;;;;;58.33;25.73;;;;;;;;;;6236326;22;20052;-45
2022/05/02 08:50:41;;;;;;;52.47;23.90;;;;;;;;;;6081918;23;20022;-44
2022/05/02 08:53:26;;;;;;;49.35;23.08;;;;;;;;;;6206461;22;20046;-45
2022/05/02 08:56:04;;;;;;;47.13;24.00;;;;;;;;;;6235138;22;20023;-45
2022/05/02 08:58:32;;;;;;;49.28;23.30;;;;;;;;;;6235737;22;20043;-47
2022/05/02 09:00:57;;;;;;;51.83;23.50;;;;;;;;;;6209589;23;20012;-46
2022/05/02 09:03:22;;;;;;;50.25;22.50;;;;;;;;;;6234168;22;20027;-45
2022/05/02 09:06:03;;;;;;;42.38;20.67;;;;;;;;;;6235862;22;20082;-45
2022/05/02 09:08:47;;;;;;;46.63;21.20;;;;;;;;;;6235162;22;20031;-45
2022/05/02 09:11:34;;;;;;;39.47;20.30;;;;;;;;;;6233076;22;20043;-48
2022/05/02 09:14:02;;;;;;;39.10;21.25;;;;;;;;;;6237034;22;20008;-45
2022/05/02 09:16:38;;;;;;;47.28;21.60;;;;;;;;;;6233824;22;20020;-44
2022/05/02 09:19:26;;;;;;;40.47;20.63;;;;;;;;;;6211596;23;20020;-46
2022/05/02 09:21:55;;;;;;;41.20;20.08;;;;;;;;;;6237119;22;20506;-47
2022/05/02 09:24:20;;;;;;;31.98;17.60;;;;;;;;;;6234471;22;20004;-44
2022/05/02 09:27:04;;;;;;;32.42;17.58;;;;;;;;;;6237739;22;20012;-44
2022/05/02 09:29:48;;;;;;;34.70;18.80;;;;;;;;;;6234209;22;20114;-45
2022/05/02 09:32:17;;;;;;;31.80;16.90;;;;;;;;;;6235176;22;20042;-46
2022/05/02 09:34:47;;;;;;;36.17;18.35;;;;;;;;;;6236787;22;20084;-45
2022/05/02 09:37:20;;;;;;;30.73;17.42;;;;;;;;;;6235863;22;20012;-47
2022/05/02 09:39:48;;;;;;;31.70;16.88;;;;;;;;;;6236621;22;20034;-46
2022/05/02 09:42:22;;;;;;;27.00;16.02;;;;;;;;;;6235810;22;20012;-47
2022/05/02 09:50:41;;;;;;;32.33;16.27;;;;;;;;;;6229974;22;20715;-46
2022/05/02 09:53:24;;;;;;;33.38;17.52;;;;;;;;;;6232918;22;20012;-44
2022/05/02 09:59:01;;;;;;;28.17;15.15;;;;;;;;;;6233036;22;20015;-45
2022/05/02 10:01:27;;;;;;;28.05;15.48;;;;;;;;;;6211282;22;20078;-45
2022/05/02 10:04:01;;;;;;;26.92;15.10;;;;;;;;;;6230859;22;20368;-50
2022/05/02 10:06:27;;;;;;;29.02;15.43;;;;;;;;;;6232232;22;20016;-46
2022/05/02 10:08:55;;;;;;;25.38;14.70;;;;;;;;;;6231978;22;20082;-47
2022/05/02 10:11:23;;;;;;;22.85;14.70;;;;;;;;;;6231712;22;20042;-46
2022/05/02 10:13:55;;;;;;;22.95;13.82;;;;;;;;;;6226080;22;20008;-45
2022/05/02 10:16:39;;;;;;;23.15;13.90;;;;;;;;;;6230789;22;20338;-47
2022/05/02 10:19:13;;;;;;;26.88;13.68;;;;;;;;;;6229322;22;20364;-45
2022/05/02 10:21:47;;;;;;;25.08;14.65;;;;;;;;;;6233316;22;20012;-45
2022/05/02 10:24:25;;;;;;;23.65;14.18;;;;;;;;;;6229408;22;20525;-45
2022/05/02 10:26:52;;;;;;;26.73;14.90;;;;;;;;;;6228543;22;20008;-45
2022/05/02 10:29:32;;;;;;;25.50;14.27;;;;;;;;;;6237034;22;20020;-44
2022/05/02 10:32:05;;;;;;;25.10;14.23;;;;;;;;;;6235958;22;20008;-45
2022/05/02 10:34:32;;;;;;;26.25;14.20;;;;;;;;;;6234351;22;20064;-45
2022/05/02 10:37:00;;;;;;;22.08;13.05;;;;;;;;;;6237149;22;20019;-45
2022/05/02 10:39:47;;;;;;;25.20;15.32;;;;;;;;;;6234653;22;20034;-44
2022/05/02 10:42:15;;;;;;;26.52;15.32;;;;;;;;;;6231745;22;20004;-47
2022/05/02 10:44:53;;;;;;;33.47;15.50;;;;;;;;;;6234321;22;20019;-45
2022/05/02 10:47:19;;;;;;;22.13;14.23;;;;;;;;;;6232365;22;20028;-46
2022/05/02 10:50:19;;;;;;;24.65;13.35;;;;;;;;;;6234344;22;20399;-45
2022/05/02 10:52:47;;;;;;;26.38;14.55;;;;;;;;;;6081505;23;20175;-44
2022/05/02 10:55:33;;;;;;;27.33;14.38;;;;;;;;;;6205038;22;20008;-49
2022/05/02 10:58:19;;;;;;;29.33;13.13;;;;;;;;;;6208394;23;20807;-47
2022/05/02 11:00:56;;;;;;;29.42;13.93;;;;;;;;;;6232842;22;20040;-46
2022/05/02 11:03:42;;;;;;;21.45;13.77;;;;;;;;;;6235024;22;20068;-48
2022/05/02 11:06:25;;;;;;;23.00;13.35;;;;;;;;;;6234409;22;20415;-45
2022/05/02 11:08:53;;;;;;;25.52;14.63;;;;;;;;;;6232973;22;20525;-46
2022/05/02 11:11:25;;;;;;;27.88;13.38;;;;;;;;;;6234849;22;20020;-47
2022/05/02 11:13:50;;;;;;;25.92;14.25;;;;;;;;;;6233787;22;20008;-45
2022/05/02 11:16:18;;;;;;;23.50;13.30;;;;;;;;;;6234668;22;20019;-44
2022/05/02 11:21:40;;;;;;;20.52;13.07;;;;;;;;;;6233053;22;20019;-48
2022/05/02 11:24:21;;;;;;;23.40;13.77;;;;;;;;;;6235686;22;20000;-46
2022/05/02 11:27:00;;;;;;;26.38;14.38;;;;;;;;;;6233587;22;20084;-45
2022/05/02 11:29:44;;;;;;;27.30;15.57;;;;;;;;;;6235275;22;20024;-45
2022/05/02 11:32:17;;;;;;;18.67;12.73;;;;;;;;;;6234046;22;20004;-45
2022/05/02 11:34:50;;;;;;;24.17;13.70;;;;;;;;;;6234022;22;20008;-45
2022/05/02 11:37:19;;;;;;;23.65;13.35;;;;;;;;;;6234404;22;20452;-47
2022/05/02 11:39:48;;;;;;;21.80;12.85;;;;;;;;;;6234234;22;20027;-47
2022/05/02 11:42:15;;;;;;;25.77;14.38;;;;;;;;;;6234087;22;20012;-48
2022/05/02 11:44:51;;;;;;;24.83;12.93;;;;;;;;;;6232693;22;20465;-46
2022/05/02 11:47:21;;;;;;;27.15;15.95;;;;;;;;;;6234421;22;20016;-46
2022/05/02 11:49:57;;;;;;;19.85;12.63;;;;;;;;;;6233607;22;20031;-48
2022/05/02 11:52:28;;;;;;;23.75;14.05;;;;;;;;;;6232603;22;20042;-46
2022/05/02 11:54:56;;;;;;;20.08;12.27;;;;;;;;;;6235106;22;20012;-46
2022/05/02 11:57:25;;;;;;;27.65;14.40;;;;;;;;;;6232841;22;20004;-45
2022/05/02 11:59:50;;;;;;;20.48;13.20;;;;;;;;;;6235216;22;20008;-47
2022/05/02 12:02:34;;;;;;;27.15;13.32;;;;;;;;;;6232442;22;20104;-44
2022/05/02 12:05:02;;;;;;;22.88;13.85;;;;;;;;;;6234651;22;20016;-46
2022/05/02 12:07:34;;;;;;;20.23;13.18;;;;;;;;;;6231613;22;20008;-46
2022/05/02 12:10:09;;;;;;;27.08;14.63;;;;;;;;;;6234315;22;20024;-49
2022/05/02 12:12:34;;;;;;;25.15;13.57;;;;;;;;;;6234468;22;20052;-45
2022/05/02 12:15:00;;;;;;;28.75;13.20;;;;;;;;;;6227464;22;20047;-47
2022/05/02 12:17:26;;;;;;;20.85;12.20;;;;;;;;;;6231862;22;20016;-45
2022/05/02 12:19:51;;;;;;;25.83;13.95;;;;;;;;;;6231682;22;20000;-45
2022/05/02 12:22:21;;;;;;;23.52;13.88;;;;;;;;;;6232875;22;20012;-46
2022/05/02 12:24:48;;;;;;;30.08;18.48;;;;;;;;;;6232928;22;20008;-45
2022/05/02 12:27:14;;;;;;;23.10;14.43;;;;;;;;;;6234567;22;20012;-44
2022/05/02 12:29:42;;;;;;;23.08;13.20;;;;;;;;;;6233215;22;20024;-46
2022/05/02 12:32:07;;;;;;;23.92;14.13;;;;;;;;;;6207784;23;20004;-47
2022/05/02 12:34:39;;;;;;;26.73;15.77;;;;;;;;;;6232215;22;20698;-46
2022/05/02 12:37:20;;;;;;;35.67;18.60;;;;;;;;;;6235924;22;20015;-46
2022/05/02 12:40:01;;;;;;;23.67;13.77;;;;;;;;;;6206608;23;20019;-47
2022/05/02 12:42:28;;;;;;;23.92;15.15;;;;;;;;;;6233377;22;20473;-48
2022/05/02 12:44:57;;;;;;;23.40;14.43;;;;;;;;;;6232848;22;20012;-45
2022/05/02 12:47:23;;;;;;;28.73;15.23;;;;;;;;;;6233768;22;20066;-47
2022/05/02 12:49:54;;;;;;;26.23;14.70;;;;;;;;;;6235277;22;20016;-48
2022/05/02 12:52:20;;;;;;;26.55;15.55;;;;;;;;;;6232685;22;20468;-46
2022/05/02 12:54:49;;;;;;;24.45;15.00;;;;;;;;;;6237001;22;20012;-49
2022/05/02 13:02:50;;;;;;;26.98;14.63;;;;;;;;;;6234416;22;20016;-47
2022/05/02 13:05:17;;;;;;;26.23;14.35;;;;;;;;;;6235679;22;20019;-48
2022/05/02 13:07:45;;;;;;;24.13;13.63;;;;;;;;;;6237027;22;20012;-47
2022/05/02 13:10:15;;;;;;;24.10;14.05;;;;;;;;;;6234087;22;20020;-46
2022/05/02 13:12:52;;;;;;;24.23;14.02;;;;;;;;;;6233518;22;20016;-45
2022/05/02 13:15:17;;;;;;;28.77;15.65;;;;;;;;;;6234186;22;20012;-47
2022/05/02 13:17:43;;;;;;;30.15;15.45;;;;;;;;;;6236985;22;20492;-45
2022/05/02 13:20:12;;;;;;;23.52;13.98;;;;;;;;;;6235099;22;20020;-47
2022/05/02 13:23:13;;;;;;;27.75;14.48;;;;;;;;;;6236655;22;20004;-49
2022/05/02 13:25:57;;;;;;;23.85;12.98;;;;;;;;;;6156672;22;20023;-47
2022/05/02 13:28:23;;;;;;;24.77;13.77;;;;;;;;;;6235352;22;20019;-46
2022/05/02 13:30:52;;;;;;;21.23;13.40;;;;;;;;;;6234302;22;20134;-46
2022/05/02 13:33:24;;;;;;;26.20;16.40;;;;;;;;;;6233901;22;20012;-46
2022/05/02 13:35:57;;;;;;;28.75;15.90;;;;;;;;;;6234611;22;20525;-47
2022/05/02 13:38:27;;;;;;;24.88;15.52;;;;;;;;;;6233670;22;20011;-47
2022/05/02 13:41:09;;;;;;;23.10;14.90;;;;;;;;;;6234210;22;20015;-51
2022/05/02 13:44:10;;;;;;;24.17;14.73;;;;;;;;;;6236421;22;20064;-46
2022/05/02 13:46:52;;;;;;;29.13;15.88;;;;;;;;;;6204858;23;20026;-46
2022/05/02 13:49:18;;;;;;;24.10;16.40;;;;;;;;;;6203432;22;20024;-47
2022/05/02 13:51:49;;;;;;;26.25;15.38;;;;;;;;;;6233213;22;20111;-46
2022/05/02 13:54:23;;;;;;;28.63;18.67;;;;;;;;;;6230091;22;20012;-49
2022/05/02 13:57:07;;;;;;;34.30;19.10;;;;;;;;;;6232087;22;20012;-48
2022/05/02 13:59:50;;;;;;;31.08;17.60;;;;;;;;;;6231155;22;20012;-49
2022/05/02 14:02:48;;;;;;;26.23;14.80;;;;;;;;;;6231383;22;20041;-48
2022/05/02 14:05:31;;;;;;;23.85;13.88;;;;;;;;;;6203519;22;20873;-48
2022/05/02 14:07:59;;;;;;;23.95;13.93;;;;;;;;;;6206020;23;20322;-46
2022/05/02 14:10:28;;;;;;;31.90;19.08;;;;;;;;;;6229169;22;20050;-46
2022/05/02 14:12:54;;;;;;;25.07;14.80;;;;;;;;;;6229586;22;20016;-46
2022/05/02 14:15:19;;;;;;;29.00;17.02;;;;;;;;;;6231130;22;20031;-45
2022/05/02 14:17:53;;;;;;;33.38;17.77;;;;;;;;;;6228096;22;20008;-45
2022/05/02 14:20:25;;;;;;;31.30;15.65;;;;;;;;;;6227284;22;20132;-46
2022/05/02 14:22:54;;;;;;;30.08;18.83;;;;;;;;;;6233555;22;20018;-46
2022/05/02 14:25:39;;;;;;;28.27;18.50;;;;;;;;;;6232398;22;20095;-46
2022/05/02 14:28:07;;;;;;;30.20;18.38;;;;;;;;;;6233164;22;20000;-45
2022/05/02 14:30:35;;;;;;;32.42;18.15;;;;;;;;;;6236017;22;20020;-48
2022/05/02 14:33:00;;;;;;;29.38;14.23;;;;;;;;;;6234521;22;20055;-45
2022/05/02 14:35:26;;;;;;;22.73;14.68;;;;;;;;;;6236194;22;20286;-46
2022/05/02 14:37:52;;;;;;;37.15;19.05;;;;;;;;;;6208622;23;20012;-47
2022/05/02 14:40:18;;;;;;;34.17;18.77;;;;;;;;;;6236268;22;20012;-46
2022/05/02 14:42:44;;;;;;;23.50;14.00;;;;;;;;;;6234258;22;20020;-46
2022/05/02 14:45:10;;;;;;;23.95;13.88;;;;;;;;;;6235019;22;20081;-46
2022/05/02 14:47:36;;;;;;;19.40;12.68;;;;;;;;;;6235096;22;20012;-45
2022/05/02 14:50:01;;;;;;;18.98;12.57;;;;;;;;;;6236061;22;20099;-47
2022/05/02 14:52:29;;;;;;;28.60;17.65;;;;;;;;;;6233695;22;20016;-48
2022/05/02 14:54:54;;;;;;;21.67;13.52;;;;;;;;;;6236561;22;20023;-47
2022/05/02 14:57:23;;;;;;;21.20;13.32;;;;;;;;;;6233333;22;20087;-46
2022/05/02 14:59:54;;;;;;;23.35;13.20;;;;;;;;;;6236114;22;20054;-48
2022/05/02 15:02:21;;;;;;;19.50;12.65;;;;;;;;;;6233456;22;20019;-45
2022/05/02 15:04:47;;;;;;;24.83;13.88;;;;;;;;;;6235838;22;20014;-48
2022/05/02 15:07:16;;;;;;;27.25;14.00;;;;;;;;;;6233474;22;20103;-47
2022/05/02 15:12:32;;;;;;;22.58;14.10;;;;;;;;;;6234377;22;20088;-45